Time;durP1;ratioP1;P1;durP2;ratioP2;P2;SDS_P1;SDS_P2;PMS_P1;PMS_P2;Temp;Humidity;BMP_temperature;BMP_pressure;BME280_temperature;BME280_humidity;BME280_pressure;Samples;Min_cycle;Max_cycle;Signal;HPM_P1;HPM_P2
2022/08/03 00:00:06;;;;;;;;;;;;;;;;;;;;;
2022/08/03 00:03:02;;;;;;;6.43;1.88;;;18.60;99.90;;;;;;4810058;29;20065;-92
2022/08/03 00:06:06;;;;;;;8.02;2.20;;;18.40;99.90;;;;;;4791354;29;20503;-91
2022/08/03 00:09:12;;;;;;;10.43;2.72;;;18.90;99.90;;;;;;4783734;29;20058;-92
2022/08/03 00:27:01;;;;;;;;;;;;;;;;;;;;;
2022/08/03 00:34:32;;;;;;;;;;;;;;;;;;;;;
2022/08/03 00:40:28;;;;;;;5.07;1.85;;;18.90;99.90;;;;;;4851660;29;20053;-91
2022/08/03 00:51:39;;;;;;;;;;;;;;;;;;;;;
2022/08/03 00:55:14;;;;;;;;;;;;;;;;;;;;;
2022/08/03 01:09:57;;;;;;;;;;;;;;;;;;;;;
2022/08/03 01:35:31;;;;;;;4.32;1.60;;;18.70;99.90;;;;;;4831116;29;20479;-91
2022/08/03 01:53:02;;;;;;;12.30;1.60;;;18.80;99.90;;;;;;4715519;30;20144;-92
2022/08/03 01:59:55;;;;;;;;;;;;;;;;;;;;;
2022/08/03 02:03:07;;;;;;;;;;;;;;;;;;;;;
2022/08/03 02:13:17;;;;;;;;;;;;;;;;;;;;;
2022/08/03 02:16:42;;;;;;;;;;;;;;;;;;;;;
2022/08/03 02:29:40;;;;;;;9.73;1.70;;;18.80;99.90;;;;;;4835682;29;20053;-91
2022/08/03 02:46:51;;;;;;;;;;;;;;;;;;;;;
2022/08/03 02:50:23;;;;;;;;;;;;;;;;;;;;;
2022/08/03 02:53:58;;;;;;;;;;;;;;;;;;;;;
2022/08/03 03:04:26;;;;;;;;;;;;;;;;;;;;;
2022/08/03 03:11:42;;;;;;;8.13;2.00;;;18.10;99.90;;;;;;4700452;30;20495;-91
2022/08/03 06:27:50;;;;;;;6.00;2.60;;;19.60;99.90;;;;;;6085222;23;20527;-91
2022/08/03 06:43:59;;;;;;;11.73;2.88;;;20.30;99.90;;;;;;6214530;23;20024;-92
2022/08/03 06:49:09;;;;;;;14.52;3.20;;;20.50;99.90;;;;;;6338018;22;20033;-90
2022/08/03 06:51:34;;;;;;;14.68;4.55;;;20.50;99.90;;;;;;6313113;22;20311;-89
2022/08/03 07:01:25;;;;;;;16.13;3.13;;;20.70;99.90;;;;;;6320170;22;20030;-89
2022/08/03 07:04:36;;;;;;;15.55;3.40;;;19.90;99.90;;;;;;6286742;22;20056;-91
2022/08/03 07:07:41;;;;;;;13.80;3.70;;;20.80;99.90;;;;;;6317465;22;20011;-91
2022/08/03 07:10:26;;;;;;;16.98;3.33;;;20.30;99.90;;;;;;6295090;22;20340;-88
2022/08/03 07:13:20;;;;;;;10.80;3.08;;;21.10;99.90;;;;;;6312720;22;20346;-92
2022/08/03 07:16:17;;;;;;;13.13;3.60;;;20.60;99.90;;;;;;6311255;22;20046;-90
2022/08/03 07:18:46;;;;;;;11.75;4.18;;;20.80;99.90;;;;;;6313876;22;20048;-90
2022/08/03 07:30:52;;;;;;;;;;;;;;;;;;;;;
2022/08/03 07:53:30;;;;;;;17.92;4.53;;;21.70;99.90;;;;;;6244149;23;20070;-90
2022/08/03 08:07:10;;;;;;;13.88;3.95;;;21.10;99.90;;;;;;6310206;22;20013;-88
2022/08/03 08:10:14;;;;;;;19.08;4.45;;;22.00;99.90;;;;;;6282349;22;20026;-91
2022/08/03 08:12:49;;;;;;;15.38;3.65;;;22.20;99.90;;;;;;6307311;22;20042;-88
2022/08/03 08:16:10;;;;;;;19.52;4.25;;;22.10;99.90;;;;;;6308686;22;20438;-90
2022/08/03 08:19:19;;;;;;;;;;;;;;;;;;;;;
2022/08/03 08:25:11;;;;;;;15.23;3.75;;;22.00;99.90;;;;;;6224045;22;20052;-92
2022/08/03 08:28:31;;;;;;;15.50;3.83;;;22.30;99.90;;;;;;6309440;22;20098;-93
2022/08/03 08:31:41;;;;;;;22.17;3.85;;;22.10;99.90;;;;;;6266759;22;20342;-90
2022/08/03 08:34:21;;;;;;;12.80;4.65;;;22.40;99.90;;;;;;6304966;22;20045;-90
2022/08/03 08:37:17;;;;;;;13.70;4.38;;;22.40;99.90;;;;;;6308921;22;20338;-90
2022/08/03 08:39:46;;;;;;;16.95;4.85;;;21.60;99.90;;;;;;6283141;22;20015;-88
2022/08/03 08:46:50;;;;;;;17.95;5.20;;;22.50;99.90;;;;;;6245640;23;20107;-90
2022/08/03 08:49:42;;;;;;;19.50;4.80;;;23.30;99.90;;;;;;6246640;23;20023;-90
2022/08/03 08:59:15;;;;;;;16.02;5.72;;;21.70;99.90;;;;;;6221196;23;20072;-91
2022/08/03 09:14:21;;;;;;;14.60;4.88;;;21.70;99.90;;;;;;6011222;23;20027;-90
2022/08/03 09:20:37;;;;;;;;;;;;;;;;;;;;;
2022/08/03 09:23:47;;;;;;;16.65;5.13;;;22.90;99.90;;;;;;6154488;23;20373;-89
2022/08/03 09:38:28;;;;;;;14.20;4.80;;;23.20;99.90;;;;;;6337893;22;20038;-90
2022/08/03 09:45:09;;;;;;;17.65;5.38;;;23.40;99.90;;;;;;6274905;22;20522;-86
2022/08/03 09:55:24;;;;;;;;;;;;;;;;;;;;;
2022/08/03 10:02:14;;;;;;;16.10;5.30;;;23.80;99.90;;;;;;6071784;23;20023;-91
2022/08/03 10:05:09;;;;;;;;;;;;;;;;;;;;;
2022/08/03 10:07:54;;;;;;;23.17;6.93;;;23.90;99.90;;;;;;6219702;23;20011;-91
2022/08/03 10:10:22;;;;;;;17.48;6.13;;;23.90;99.90;;;;;;6268005;22;20014;-90
2022/08/03 10:13:06;;;;;;;;;;;;;;;;;;;;;
2022/08/03 10:19:14;;;;;;;12.63;5.20;;;23.70;99.90;;;;;;6193991;22;20020;-91
2022/08/03 10:22:38;;;;;;;21.83;5.90;;;24.00;99.90;;;;;;6313567;22;20457;-90
2022/08/03 10:30:51;;;;;;;15.93;5.45;;;24.30;99.90;;;;;;6372597;22;20449;-88
2022/08/03 10:34:18;;;;;;;15.75;5.50;;;24.40;99.90;;;;;;6346290;22;20505;-90
2022/08/03 10:37:32;;;;;;;;;;;;;;;;;;;;;
2022/08/03 10:40:37;;;;;;;20.02;5.72;;;25.50;99.90;;;;;;6343219;22;19914;-92
2022/08/03 10:48:05;;;;;;;;;;;;;;;;;;;;;
2022/08/03 10:51:23;;;;;;;20.10;6.65;;;24.90;99.90;;;;;;6261486;22;20522;-90
2022/08/03 10:58:05;;;;;;;;;;;;;;;;;;;;;
2022/08/03 11:04:44;;;;;;;21.20;6.85;;;25.00;99.90;;;;;;6371937;22;20079;-91
2022/08/03 11:07:18;;;;;;;23.77;6.45;;;24.90;99.90;;;;;;6242612;23;20020;-91
2022/08/03 11:09:54;;;;;;;;;;;25.00;99.90;;;;;;6159108;23;20021;-89
2022/08/03 11:12:56;;;;;;;19.15;5.90;;;25.00;99.90;;;;;;6159279;23;19916;-91
2022/08/03 11:15:53;;;;;;;18.42;6.57;;;25.00;99.90;;;;;;6134406;23;20025;-91
2022/08/03 11:22:12;;;;;;;18.17;5.63;;;25.10;99.90;;;;;;6027763;23;20026;-90
2022/08/03 11:25:11;;;;;;;16.90;6.03;;;25.10;99.90;;;;;;6159443;23;20033;-89
2022/08/03 11:28:28;;;;;;;24.50;5.90;;;24.40;99.90;;;;;;6067224;23;20019;-92
2022/08/03 11:34:25;;;;;;;17.00;5.75;;;25.50;99.90;;;;;;6177454;23;20035;-89
2022/08/03 11:37:23;;;;;;;18.20;6.40;;;25.50;99.90;;;;;;6240046;22;20014;-89
2022/08/03 11:39:53;;;;;;;18.58;6.85;;;25.30;99.90;;;;;;6345939;22;20097;-90
2022/08/03 11:45:30;;;;;;;28.80;6.70;;;25.40;99.90;;;;;;6326486;22;20018;-89
2022/08/03 11:48:27;;;;;;;19.58;6.28;;;25.30;99.90;;;;;;6320034;22;20097;-91
2022/08/03 11:50:58;;;;;;;17.85;5.18;;;25.30;99.90;;;;;;6219740;23;20023;-91
2022/08/03 11:57:49;;;;;;;20.90;5.97;;;24.90;99.90;;;;;;6372492;22;20018;-91
2022/08/03 12:03:45;;;;;;;23.27;6.55;;;25.70;99.90;;;;;;6317807;22;20075;-86
2022/08/03 12:06:18;;;;;;;30.17;6.28;;;25.50;99.90;;;;;;6345982;22;20015;-92
2022/08/03 12:09:02;;;;;;;22.92;6.68;;;25.50;99.90;;;;;;6345539;22;20059;-90
2022/08/03 12:11:29;;;;;;;14.98;5.43;;;25.60;99.90;;;;;;6370996;22;20010;-93
2022/08/03 12:14:35;;;;;;;26.30;5.47;;;25.60;99.90;;;;;;6373430;22;20014;-89
2022/08/03 12:17:01;;;;;;;14.18;5.25;;;25.70;99.90;;;;;;6315915;22;20016;-89
2022/08/03 12:19:47;;;;;;;20.30;5.65;;;25.70;99.90;;;;;;6344324;22;20089;-90
2022/08/03 12:22:16;;;;;;;17.52;5.50;;;25.70;99.90;;;;;;6345168;22;20010;-92
2022/08/03 12:24:45;;;;;;;19.35;5.85;;;25.90;99.90;;;;;;6345338;22;20018;-90
2022/08/03 12:27:28;;;;;;;22.20;6.37;;;25.80;99.90;;;;;;6345869;22;20338;-88
2022/08/03 12:30:15;;;;;;;26.05;5.30;;;26.00;99.90;;;;;;6324012;22;20447;-90
2022/08/03 12:32:44;;;;;;;23.67;4.53;;;26.00;99.90;;;;;;6338874;22;20029;-90
2022/08/03 12:35:29;;;;;;;19.60;4.50;;;26.00;99.90;;;;;;6288191;22;20447;-90
2022/08/03 12:38:27;;;;;;;17.00;6.25;;;26.40;99.90;;;;;;6287978;22;20026;-86
2022/08/03 12:41:01;;;;;;;24.77;6.50;;;26.00;99.90;;;;;;6341360;22;20035;-90
2022/08/03 12:43:27;;;;;;;;;;;26.00;99.90;;;;;;6288431;22;20507;-89
2022/08/03 12:46:10;;;;;;;17.83;4.70;;;26.00;99.90;;;;;;6340370;22;19938;-88
2022/08/03 12:48:36;;;;;;;16.85;4.53;;;26.10;99.90;;;;;;6287632;22;20156;-91
2022/08/03 12:51:10;;;;;;;29.45;5.57;;;26.10;99.90;;;;;;6313849;22;20023;-88
2022/08/03 12:53:39;;;;;;;19.38;4.72;;;26.20;99.90;;;;;;6340054;22;20015;-89
2022/08/03 12:56:10;;;;;;;22.75;5.30;;;26.10;99.90;;;;;;6288654;22;20119;-89
2022/08/03 12:58:53;;;;;;;16.95;3.95;;;26.40;99.90;;;;;;6287545;22;20442;-89
2022/08/03 13:01:36;;;;;;;;;;;;;;;;;;;;;
2022/08/03 13:04:27;;;;;;;17.60;4.45;;;26.30;99.90;;;;;;6341160;22;20015;-91
2022/08/03 13:07:20;;;;;;;22.08;4.00;;;26.30;99.90;;;;;;6340126;22;20014;-89
2022/08/03 13:09:57;;;;;;;18.40;5.07;;;26.40;99.90;;;;;;6300774;22;20015;-87
2022/08/03 13:13:10;;;;;;;15.07;4.78;;;26.40;99.90;;;;;;6313846;22;20026;-91
2022/08/03 13:15:41;;;;;;;;;;;27.10;99.90;;;;;;6312590;22;20023;-90
2022/08/03 13:18:08;;;;;;;16.25;4.60;;;26.30;99.90;;;;;;6288260;22;19949;-90
2022/08/03 13:20:36;;;;;;;22.65;4.50;;;26.40;99.90;;;;;;6295187;22;20010;-89
2022/08/03 13:23:22;;;;;;;17.25;4.85;;;26.40;99.90;;;;;;6287583;22;20071;-91
2022/08/03 13:25:53;;;;;;;21.85;5.15;;;26.40;99.90;;;;;;6340943;22;20095;-90
2022/08/03 13:28:19;;;;;;;15.32;4.63;;;26.50;99.90;;;;;;6312344;22;20033;-94
2022/08/03 13:30:55;;;;;;;;;;;;;;;;;;;;;
2022/08/03 13:33:27;;;;;;;20.40;4.95;;;26.50;99.90;;;;;;6313201;22;20028;-91
2022/08/03 13:36:10;;;;;;;21.27;5.50;;;26.60;99.90;;;;;;6286496;22;20015;-89
2022/08/03 13:38:54;;;;;;;18.05;4.97;;;25.70;99.90;;;;;;6287193;22;20014;-92
2022/08/03 13:41:28;;;;;;;11.30;4.50;;;26.60;99.90;;;;;;6287543;22;20011;-90
2022/08/03 13:43:55;;;;;;;12.32;4.43;;;26.60;99.90;;;;;;6286285;22;20075;-91
2022/08/03 13:47:00;;;;;;;15.95;4.05;;;26.60;99.90;;;;;;6313714;22;20036;-91
2022/08/03 13:50:01;;;;;;;10.93;4.60;;;26.60;99.90;;;;;;6286665;22;20384;-90
2022/08/03 13:52:31;;;;;;;14.95;4.60;;;26.70;99.90;;;;;;6285715;22;20025;-88
2022/08/03 13:55:04;;;;;;;14.45;5.20;;;26.60;99.90;;;;;;6287009;22;20019;-89
2022/08/03 13:57:34;;;;;;;13.00;3.53;;;26.20;99.90;;;;;;6339178;22;20071;-87
2022/08/03 14:00:03;;;;;;;19.20;5.57;;;26.50;99.90;;;;;;6286976;22;20454;-90
2022/08/03 14:02:48;;;;;;;16.35;4.10;;;26.50;99.90;;;;;;6299888;22;20025;-90
2022/08/03 14:05:16;;;;;;;12.30;4.07;;;26.80;99.90;;;;;;6281693;22;20102;-89
2022/08/03 14:07:52;;;;;;;;;;;;;;;;;;;;;
2022/08/03 14:10:41;;;;;;;14.07;4.28;;;26.80;99.90;;;;;;6308073;22;20021;-89
2022/08/03 14:13:45;;;;;;;9.48;3.47;;;26.80;99.90;;;;;;6333732;22;20047;-89
2022/08/03 14:16:11;;;;;;;19.00;4.37;;;25.70;99.90;;;;;;6329186;22;20019;-89
2022/08/03 14:18:37;;;;;;;17.70;3.90;;;26.80;99.90;;;;;;6308255;22;20728;-91
2022/08/03 14:21:04;;;;;;;14.35;4.22;;;26.80;99.90;;;;;;6307323;22;20026;-91
2022/08/03 14:23:30;;;;;;;14.15;4.10;;;26.90;99.90;;;;;;6307887;22;20015;-91
2022/08/03 14:25:56;;;;;;;8.50;3.15;;;26.90;99.90;;;;;;6333013;22;20047;-89
2022/08/03 14:28:23;;;;;;;15.02;4.82;;;27.00;99.90;;;;;;6333700;22;20387;-90
2022/08/03 14:31:12;;;;;;;10.15;3.80;;;27.10;99.90;;;;;;6307209;22;20022;-89
2022/08/03 14:33:37;;;;;;;12.32;3.58;;;26.20;99.90;;;;;;6306952;22;20015;-88
2022/08/03 14:36:06;;;;;;;11.52;3.75;;;27.10;99.90;;;;;;6308582;22;20073;-89
2022/08/03 14:38:32;;;;;;;12.98;3.58;;;27.20;99.90;;;;;;6308241;22;20015;-91
2022/08/03 14:41:14;;;;;;;12.43;3.72;;;27.20;99.90;;;;;;6307638;22;20011;-91
2022/08/03 14:43:40;;;;;;;13.90;3.55;;;27.00;99.90;;;;;;6309015;22;20140;-88
2022/08/03 14:49:00;;;;;;;10.10;2.90;;;27.00;99.90;;;;;;6277777;22;20015;-89
2022/08/03 14:51:26;;;;;;;9.80;3.35;;;27.00;99.90;;;;;;6307068;22;20363;-92
2022/08/03 14:54:08;;;;;;;;;;;;;;;;;;;;;
2022/08/03 14:57:05;;;;;;;13.70;3.42;;;27.10;99.90;;;;;;6307231;22;20019;-90
2022/08/03 14:59:33;;;;;;;13.65;3.35;;;27.30;99.90;;;;;;6333119;22;20089;-90
2022/08/03 15:02:18;;;;;;;12.80;3.80;;;26.90;99.90;;;;;;6309677;22;20461;-89
2022/08/03 15:04:44;;;;;;;10.63;3.22;;;27.50;99.90;;;;;;6309853;22;20454;-87
2022/08/03 15:07:10;;;;;;;11.52;3.60;;;27.60;99.90;;;;;;6307978;22;20023;-89
2022/08/03 15:09:49;;;;;;;11.07;3.20;;;27.70;99.90;;;;;;6334050;22;20015;-90
2022/08/03 15:12:15;;;;;;;9.40;3.00;;;28.00;99.90;;;;;;6333009;22;20019;-91
2022/08/03 15:14:41;;;;;;;16.13;3.50;;;28.00;99.90;;;;;;6306090;22;20026;-91
2022/08/03 15:17:12;;;;;;;10.73;3.10;;;28.10;99.90;;;;;;6306979;22;20015;-89
2022/08/03 15:19:39;;;;;;;14.07;3.42;;;28.20;99.90;;;;;;6308800;22;20038;-92
2022/08/03 15:22:05;;;;;;;8.70;2.45;;;28.10;99.90;;;;;;6306044;22;20015;-90
2022/08/03 15:24:31;;;;;;;10.30;2.55;;;28.10;98.50;;;;;;6307390;22;20079;-92
2022/08/03 15:27:00;;;;;;;18.92;3.78;;;28.10;97.70;;;;;;6306837;22;20101;-90
2022/08/03 15:29:25;;;;;;;11.82;3.15;;;28.00;98.50;;;;;;6307708;22;20012;-89
2022/08/03 15:31:52;;;;;;;12.00;2.70;;;28.00;98.60;;;;;;6333338;22;20095;-91
2022/08/03 15:34:17;;;;;;;9.30;3.53;;;27.90;98.20;;;;;;6306521;22;20099;-90
2022/08/03 15:36:46;;;;;;;11.73;2.63;;;27.90;99.20;;;;;;6307027;22;20042;-88
2022/08/03 15:39:12;;;;;;;13.55;3.03;;;27.80;98.60;;;;;;6307270;22;20059;-88
2022/08/03 15:41:40;;;;;;;10.35;2.65;;;27.70;99.10;;;;;;6307733;22;20026;-90
2022/08/03 15:44:06;;;;;;;9.27;2.88;;;27.60;98.80;;;;;;6333406;22;20011;-90
2022/08/03 15:46:32;;;;;;;9.43;2.63;;;27.60;99.30;;;;;;6308417;22;20439;-88
2022/08/03 15:49:15;;;;;;;;;;;;;;;;;;;;;
2022/08/03 15:51:56;;;;;;;13.13;3.10;;;27.60;99.10;;;;;;6305750;22;20096;-91
2022/08/03 15:54:25;;;;;;;12.23;3.08;;;27.60;98.60;;;;;;6306607;22;20439;-90
2022/08/03 15:56:51;;;;;;;11.18;2.70;;;27.50;98.90;;;;;;6305810;22;20023;-89
2022/08/03 15:59:18;;;;;;;15.20;3.42;;;27.50;98.80;;;;;;6332894;22;20015;-89
2022/08/03 16:02:09;;;;;;;10.77;3.03;;;27.50;99.00;;;;;;6306448;22;20051;-90
2022/08/03 16:04:38;;;;;;;16.73;3.50;;;27.50;98.60;;;;;;6305946;22;20030;-89
2022/08/03 16:07:03;;;;;;;9.20;2.63;;;27.50;98.00;;;;;;6265113;22;20019;-90
2022/08/03 16:09:29;;;;;;;11.73;2.53;;;27.50;98.60;;;;;;6274627;22;20016;-89
2022/08/03 16:11:56;;;;;;;7.93;2.47;;;27.50;99.20;;;;;;6277010;22;20020;-88
2022/08/03 16:14:22;;;;;;;10.88;2.60;;;27.50;98.00;;;;;;6275443;22;20020;-88
2022/08/03 16:16:50;;;;;;;14.43;3.50;;;27.50;98.60;;;;;;6277690;22;20012;-89
2022/08/03 16:19:15;;;;;;;13.05;3.10;;;27.50;99.30;;;;;;6276529;22;20016;-91
2022/08/03 16:21:44;;;;;;;11.43;2.95;;;27.60;98.70;;;;;;6251582;22;20439;-88
2022/08/03 16:24:10;;;;;;;14.25;2.58;;;27.60;98.80;;;;;;6276234;22;20019;-89
2022/08/03 16:26:35;;;;;;;14.07;3.85;;;27.60;98.80;;;;;;6278997;22;20142;-89
2022/08/03 16:29:01;;;;;;;13.35;3.50;;;27.60;99.50;;;;;;6277457;22;20446;-91
2022/08/03 16:31:30;;;;;;;12.73;2.60;;;27.70;98.40;;;;;;6277079;22;20016;-90
2022/08/03 16:33:56;;;;;;;10.93;2.42;;;27.70;98.00;;;;;;6279290;22;20335;-88
2022/08/03 16:36:27;;;;;;;7.63;2.47;;;27.70;97.80;;;;;;6277386;22;20015;-89
2022/08/03 16:38:52;;;;;;;14.80;2.40;;;27.80;97.50;;;;;;6251173;22;20098;-90
2022/08/03 16:41:18;;;;;;;8.88;2.85;;;27.90;98.00;;;;;;6277579;22;20101;-91
2022/08/03 16:43:44;;;;;;;12.23;2.90;;;28.00;98.00;;;;;;6277255;22;20012;-90
2022/08/03 16:46:15;;;;;;;12.80;2.40;;;27.90;97.80;;;;;;6251003;22;20048;-90
2022/08/03 16:48:41;;;;;;;15.63;2.83;;;27.80;97.20;;;;;;6251576;22;20026;-88
2022/08/03 16:51:07;;;;;;;12.13;2.25;;;27.60;97.70;;;;;;6277176;22;20016;-87
2022/08/03 16:53:53;;;;;;;17.80;2.80;;;27.50;97.90;;;;;;6250757;22;20116;-90
2022/08/03 16:56:19;;;;;;;12.07;2.88;;;27.40;98.00;;;;;;6278319;22;20081;-89
2022/08/03 16:58:47;;;;;;;11.23;2.20;;;27.10;98.20;;;;;;6250989;22;20019;-89
2022/08/03 17:01:13;;;;;;;12.80;2.30;;;27.10;98.50;;;;;;6251671;22;20026;-89
2022/08/03 17:03:39;;;;;;;10.32;2.67;;;27.00;98.40;;;;;;6278858;22;20018;-89
2022/08/03 17:06:08;;;;;;;10.60;2.78;;;26.80;98.10;;;;;;6287651;22;20047;-88
2022/08/03 17:08:34;;;;;;;11.30;2.60;;;26.70;98.40;;;;;;6282427;22;20380;-90
2022/08/03 17:11:01;;;;;;;8.50;2.30;;;26.60;99.00;;;;;;6282533;22;20019;-89
2022/08/03 17:13:26;;;;;;;14.63;2.83;;;26.60;99.40;;;;;;6281236;22;20090;-90
2022/08/03 17:15:54;;;;;;;12.82;2.35;;;26.50;99.50;;;;;;6256842;22;20394;-90
2022/08/03 17:18:23;;;;;;;9.55;2.40;;;26.50;99.80;;;;;;6282562;22;20095;-90
2022/08/03 17:20:53;;;;;;;13.25;3.05;;;26.40;99.90;;;;;;6255957;22;20075;-89
2022/08/03 17:23:31;;;;;;;20.70;4.05;;;26.40;99.90;;;;;;6256432;22;20094;-89
2022/08/03 17:26:01;;;;;;;9.70;3.28;;;26.40;99.90;;;;;;6256662;22;20018;-89
2022/08/03 17:28:31;;;;;;;17.08;3.17;;;26.30;99.90;;;;;;6308410;22;20019;-90
2022/08/03 17:31:16;;;;;;;19.65;3.50;;;26.30;99.90;;;;;;6257405;22;20389;-88
2022/08/03 17:33:48;;;;;;;21.00;3.67;;;26.30;99.90;;;;;;6282454;22;20051;-89
2022/08/03 17:36:22;;;;;;;19.83;3.45;;;26.30;99.90;;;;;;6256054;22;20011;-89
2022/08/03 17:38:52;;;;;;;16.15;3.00;;;26.20;99.90;;;;;;6255962;22;20071;-88
2022/08/03 17:41:19;;;;;;;12.63;2.80;;;26.20;99.90;;;;;;6254807;22;20022;-88
2022/08/03 17:43:46;;;;;;;13.00;2.75;;;26.20;99.90;;;;;;6281741;22;20022;-88
2022/08/03 17:46:12;;;;;;;16.27;2.83;;;26.10;99.90;;;;;;6308731;22;20011;-89
2022/08/03 17:48:39;;;;;;;14.55;3.17;;;26.10;99.90;;;;;;6307862;22;20015;-88
2022/08/03 17:51:36;;;;;;;11.40;2.75;;;26.10;99.90;;;;;;6281334;22;20011;-88
2022/08/03 17:54:16;;;;;;;15.93;3.13;;;26.10;99.90;;;;;;6256574;22;20512;-88
2022/08/03 17:57:11;;;;;;;14.27;2.78;;;26.20;99.90;;;;;;6280823;22;20384;-88
2022/08/03 17:59:43;;;;;;;16.98;3.40;;;26.10;99.90;;;;;;6245996;22;20022;-88
2022/08/03 18:05:36;;;;;;;11.43;2.65;;;26.20;99.90;;;;;;6192053;23;20024;-88
2022/08/03 18:08:04;;;;;;;15.32;3.90;;;26.20;99.90;;;;;;6305185;22;20023;-88
2022/08/03 18:10:34;;;;;;;13.95;3.22;;;26.10;99.90;;;;;;6307965;22;20038;-88
2022/08/03 18:13:18;;;;;;;17.52;3.22;;;26.10;99.90;;;;;;6308962;22;20051;-88
2022/08/03 18:16:00;;;;;;;15.10;2.97;;;26.00;99.90;;;;;;6308421;22;20015;-88
2022/08/03 18:18:39;;;;;;;16.25;3.72;;;25.90;99.90;;;;;;6307335;22;20015;-88
2022/08/03 18:21:06;;;;;;;15.25;2.80;;;25.80;99.90;;;;;;6309382;22;20007;-88
2022/08/03 18:23:33;;;;;;;16.45;2.90;;;25.70;99.90;;;;;;6306296;22;20022;-88
2022/08/03 18:26:00;;;;;;;16.20;3.25;;;25.50;99.90;;;;;;6306762;22;20015;-88
2022/08/03 18:28:27;;;;;;;14.65;3.47;;;25.40;99.90;;;;;;6306763;22;20055;-88
2022/08/03 18:30:54;;;;;;;14.77;2.95;;;25.40;99.90;;;;;;6306269;22;20082;-88
2022/08/03 18:33:20;;;;;;;9.85;2.65;;;25.20;99.90;;;;;;6281064;22;20015;-88
2022/08/03 18:35:48;;;;;;;11.27;2.72;;;25.10;99.90;;;;;;6280984;22;20015;-88
2022/08/03 18:38:16;;;;;;;17.67;3.38;;;24.90;99.90;;;;;;6305655;22;20505;-87
2022/08/03 18:40:42;;;;;;;16.00;3.50;;;24.80;99.90;;;;;;6308110;22;20026;-87
2022/08/03 18:43:11;;;;;;;11.95;3.58;;;24.70;99.90;;;;;;6281259;22;20389;-88
2022/08/03 18:45:41;;;;;;;16.05;4.15;;;24.50;99.90;;;;;;6279758;22;20007;-87
2022/08/03 18:48:17;;;;;;;13.70;2.80;;;24.50;99.90;;;;;;6308533;22;20019;-88
2022/08/03 18:50:54;;;;;;;8.98;2.30;;;24.30;99.90;;;;;;6280765;22;20442;-87
2022/08/03 18:53:25;;;;;;;11.63;3.55;;;24.10;99.90;;;;;;6307109;22;20090;-87
2022/08/03 18:56:25;;;;;;;15.40;3.00;;;24.10;99.90;;;;;;6308590;22;20078;-87
2022/08/03 18:58:59;;;;;;;12.63;2.95;;;24.10;99.90;;;;;;6305979;22;20019;-87
2022/08/03 19:01:43;;;;;;;15.60;3.40;;;23.90;99.90;;;;;;6306670;22;20021;-87
2022/08/03 19:04:32;;;;;;;11.10;3.00;;;23.80;99.90;;;;;;6306610;22;20019;-87
2022/08/03 19:07:07;;;;;;;11.63;3.08;;;23.60;99.90;;;;;;6279655;22;20019;-88
2022/08/03 19:09:53;;;;;;;19.25;3.90;;;23.50;99.90;;;;;;6306957;22;20034;-87
2022/08/03 19:12:22;;;;;;;13.57;3.10;;;23.40;99.90;;;;;;6279913;22;20034;-87
2022/08/03 19:14:53;;;;;;;10.23;2.58;;;23.30;99.90;;;;;;6307788;22;20015;-87
2022/08/03 19:17:25;;;;;;;11.32;2.72;;;23.20;99.90;;;;;;6307961;22;20516;-87
2022/08/03 19:19:52;;;;;;;18.10;2.97;;;23.10;99.90;;;;;;6305406;22;20019;-87
2022/08/03 19:22:19;;;;;;;10.82;3.55;;;23.10;99.90;;;;;;6306838;22;20015;-87
2022/08/03 19:24:47;;;;;;;12.13;2.63;;;22.90;99.90;;;;;;6306925;22;20049;-87
2022/08/03 19:27:14;;;;;;;16.58;2.97;;;22.90;99.90;;;;;;6305781;22;20054;-87
2022/08/03 19:29:45;;;;;;;12.55;2.90;;;22.90;99.90;;;;;;6306289;22;20019;-88
2022/08/03 19:32:17;;;;;;;9.93;2.50;;;22.80;99.90;;;;;;6308777;22;20026;-87
2022/08/03 19:34:44;;;;;;;10.75;2.88;;;22.70;99.90;;;;;;6307135;22;20019;-87
2022/08/03 19:37:13;;;;;;;12.30;3.38;;;22.70;99.90;;;;;;6306781;22;20018;-87
2022/08/03 19:39:41;;;;;;;12.05;3.10;;;22.50;99.90;;;;;;6306209;22;20068;-87
2022/08/03 19:42:11;;;;;;;11.95;3.25;;;22.50;99.90;;;;;;6306895;22;20022;-87
2022/08/03 19:44:50;;;;;;;13.73;3.25;;;22.50;99.90;;;;;;6308171;22;20066;-87
2022/08/03 19:47:26;;;;;;;11.05;3.00;;;22.40;99.90;;;;;;6306961;22;20046;-87
2022/08/03 19:49:57;;;;;;;14.30;3.10;;;22.30;99.90;;;;;;6306422;22;20418;-88
2022/08/03 19:52:26;;;;;;;11.38;2.95;;;22.20;99.90;;;;;;6306396;22;20050;-87
2022/08/03 19:54:59;;;;;;;10.45;3.00;;;22.20;99.90;;;;;;6307162;22;20042;-87
2022/08/03 19:57:27;;;;;;;9.05;2.60;;;22.10;99.90;;;;;;6282648;22;20072;-87
2022/08/03 19:59:54;;;;;;;15.27;3.05;;;22.10;99.90;;;;;;6282933;22;20060;-87
2022/08/03 20:02:20;;;;;;;10.63;2.65;;;22.00;99.90;;;;;;6307650;22;20378;-88
2022/08/03 20:04:47;;;;;;;12.25;2.70;;;21.90;99.90;;;;;;6308136;22;20058;-88
2022/08/03 20:07:15;;;;;;;6.05;2.40;;;21.90;99.90;;;;;;6309570;22;20454;-87
2022/08/03 20:09:42;;;;;;;9.88;2.55;;;21.90;99.90;;;;;;6281391;22;20020;-87
2022/08/03 20:12:11;;;;;;;13.35;3.47;;;21.90;99.90;;;;;;6256798;22;20011;-88
2022/08/03 20:14:38;;;;;;;11.40;2.92;;;21.80;99.90;;;;;;6309973;22;20019;-87
2022/08/03 20:17:06;;;;;;;12.80;3.08;;;21.70;99.90;;;;;;6309142;22;20303;-87
2022/08/03 20:19:35;;;;;;;11.95;3.13;;;21.70;99.90;;;;;;6309944;22;20394;-87
2022/08/03 20:22:01;;;;;;;14.88;2.67;;;21.60;99.90;;;;;;6256634;22;20019;-87
2022/08/03 20:24:31;;;;;;;12.80;3.88;;;21.60;99.90;;;;;;6281591;22;20065;-87
2022/08/03 20:27:02;;;;;;;10.40;2.83;;;21.60;99.90;;;;;;6256670;22;20015;-87
2022/08/03 20:29:40;;;;;;;10.15;2.05;;;21.40;99.90;;;;;;6282792;22;20019;-87
2022/08/03 20:32:07;;;;;;;9.20;1.92;;;21.30;99.90;;;;;;6282174;22;20029;-87
2022/08/03 20:34:33;;;;;;;13.10;3.47;;;21.20;99.90;;;;;;6281927;22;20019;-87
2022/08/03 20:36:58;;;;;;;16.95;3.17;;;21.20;99.90;;;;;;6281460;22;20026;-87
2022/08/03 20:39:24;;;;;;;13.20;2.70;;;21.10;99.90;;;;;;6282497;22;20073;-87
2022/08/03 20:41:50;;;;;;;12.07;3.08;;;21.10;99.90;;;;;;6256549;22;20102;-87
2022/08/03 20:44:19;;;;;;;13.98;2.45;;;21.10;99.90;;;;;;6281029;22;20012;-87
2022/08/03 20:46:45;;;;;;;14.57;3.35;;;21.00;99.90;;;;;;6282431;22;20111;-87
2022/08/03 20:49:11;;;;;;;8.55;2.38;;;21.00;99.90;;;;;;6281780;22;20047;-87
2022/08/03 20:51:40;;;;;;;9.00;2.50;;;21.00;99.90;;;;;;6308238;22;20517;-88
2022/08/03 20:54:06;;;;;;;13.30;2.60;;;21.00;99.90;;;;;;6282247;22;20466;-87
2022/08/03 20:56:34;;;;;;;9.73;2.10;;;21.00;99.90;;;;;;6256798;22;20077;-87
2022/08/03 20:59:05;;;;;;;10.93;2.75;;;21.00;99.90;;;;;;6255124;22;20019;-88
2022/08/03 21:01:35;;;;;;;8.23;2.33;;;20.90;99.90;;;;;;6309561;22;20011;-87
2022/08/03 21:04:04;;;;;;;8.02;2.28;;;20.90;99.90;;;;;;6256111;22;20019;-88
2022/08/03 21:06:47;;;;;;;14.50;3.03;;;20.90;99.90;;;;;;6307203;22;20015;-88
2022/08/03 21:09:18;;;;;;;11.07;2.88;;;20.90;99.90;;;;;;6283215;22;20019;-88
2022/08/03 21:11:50;;;;;;;18.85;2.53;;;20.90;99.90;;;;;;6283675;22;20512;-87
2022/08/03 21:14:26;;;;;;;10.57;2.22;;;20.80;99.90;;;;;;6258463;22;20015;-88
2022/08/03 21:16:53;;;;;;;8.63;2.67;;;20.80;99.90;;;;;;6281938;22;20437;-88
2022/08/03 21:19:20;;;;;;;9.60;2.88;;;20.80;99.90;;;;;;6281068;22;20015;-88
2022/08/03 21:21:48;;;;;;;10.73;2.90;;;20.80;99.90;;;;;;6281579;22;20011;-88
2022/08/03 21:24:14;;;;;;;8.82;2.53;;;20.80;99.90;;;;;;6281562;22;20438;-87
2022/08/03 21:26:41;;;;;;;7.90;2.50;;;20.70;99.90;;;;;;6307977;22;20015;-88
2022/08/03 21:29:12;;;;;;;14.48;3.25;;;20.80;99.90;;;;;;6256212;22;20015;-89
2022/08/03 21:31:39;;;;;;;6.82;2.08;;;20.80;99.90;;;;;;6281227;22;20019;-88
2022/08/03 21:34:05;;;;;;;10.45;3.05;;;20.80;99.90;;;;;;6308306;22;20019;-89
2022/08/03 21:36:36;;;;;;;9.23;2.25;;;20.70;99.90;;;;;;6255960;22;20019;-88
2022/08/03 21:39:05;;;;;;;9.77;2.30;;;20.70;99.90;;;;;;6281655;22;20011;-89
2022/08/03 21:41:32;;;;;;;9.75;2.67;;;20.70;99.90;;;;;;6254803;22;20018;-88
2022/08/03 21:43:59;;;;;;;11.45;2.20;;;20.70;99.90;;;;;;6281886;22;20334;-90
2022/08/03 21:46:28;;;;;;;8.73;2.17;;;20.60;99.90;;;;;;6255286;22;20057;-88
2022/08/03 21:48:58;;;;;;;11.60;2.70;;;20.70;99.90;;;;;;6254885;22;20021;-88
2022/08/03 21:51:25;;;;;;;13.25;2.88;;;20.60;99.90;;;;;;6281031;22;20011;-88
2022/08/03 21:53:52;;;;;;;8.60;2.33;;;20.50;99.90;;;;;;6255773;22;20080;-88
2022/08/03 21:56:24;;;;;;;7.65;2.20;;;20.50;99.90;;;;;;6280330;22;20012;-88
2022/08/03 21:58:58;;;;;;;12.25;3.00;;;20.40;99.90;;;;;;6281182;22;20039;-88
2022/08/03 22:01:26;;;;;;;8.57;2.28;;;20.40;99.90;;;;;;6254226;22;20027;-88
2022/08/03 22:03:54;;;;;;;11.07;2.35;;;20.30;99.90;;;;;;6281633;22;20406;-87
2022/08/03 22:06:21;;;;;;;10.75;2.58;;;20.30;99.90;;;;;;6288070;22;20037;-87
2022/08/03 22:08:49;;;;;;;7.25;2.13;;;20.10;99.90;;;;;;6306328;22;20023;-89
2022/08/03 22:11:15;;;;;;;8.77;2.47;;;20.10;99.90;;;;;;6306299;22;20323;-88
2022/08/03 22:13:41;;;;;;;10.68;2.13;;;20.00;99.90;;;;;;6307320;22;20024;-87